Coleman A. Young Municipal Airport
KDET : now visible

Airfield :











YOU CAN JOIN US ON...

 
LOGIN :

Register | Disclaimer

   EN    FR    IT 

 









Legend :    VFR   Marginal VFR   IFR   Intensive IFR   Very Intensive IFR
Visi :
Ceiling :
>= 8 km
>= 3000ft
5 to 8 km
1000 to 3000 ft
1500m to 5 km
500 to 1000 ft
800 to 1500m
200 to 500 ft
< 800m
< 200 ft
Symbols :   Thunderstorms  Fog  Heavy snow  Heavy precipitations  Wind > 20 kt







- Airport Elevation : 626 ft
- IATA code : DET


KDET - Coleman A. Young Municipal

CURRENT METAR :
  • 191553Z 36014G20KT 10SM OVC011 06/03 A2970 RMK AO2 SLP059 T00560028

EXPIRED METARs :
  • 191453Z 36011KT 10SM OVC011 06/03 A2968 RMK AO2 SLP051 60009 T00610033 53010
  • 191353Z 02015KT 10SM OVC011 06/03 A2965 RMK AO2 RAE49 SLP043 P0001 T00560033

TAF KDET
Valid from the 19 at 13:00 until the 20 at 12:00 UTC


191259Z 1913/2012 01011KT 3SM -RA SCT008 BKN012 OVC040
FM191500 36013G22KT P6SM OVC014
FM191800 01015G26KT P6SM SCT012 OVC018
FM200100 01018KT 6SM -DZ OVC012
FM200600 02015G25KT 5SM -RA OVC010
KZOB FIR / North America



MET'MAP, your aeronautical weather chart ! - Copyright ORBIFLY December 2007 - Disclaimer

ORBIFLY MET'MAP TEAM :

Programming & Development : Alexandra Zaïnal
Concept & Development : Baudouin d'Aumeries
Co-Development & Prog : Marc-Olivier Méhu
Technical & hardware support : Manuel Goepfert

Contact : metmap@orbifly.com




SOURCES & CREDITS :

   NOAA       Earth
Advisory